Time;durP1;ratioP1;P1;durP2;ratioP2;P2;SDS_P1;SDS_P2;PMS_P1;PMS_P2;Temp;Humidity;BMP_temperature;BMP_pressure;BME280_temperature;BME280_humidity;BME280_pressure;Samples;Min_cycle;Max_cycle;Signal;HPM_P1;HPM_P2
2022/10/22 00:00:13;;;;;;;19.13;13.30;;;19.40;88.40;;;19.45;50.42;98599.81;5092659;28;20040;-78
2022/10/22 00:02:59;;;;;;;19.60;12.43;;;19.40;88.40;;;19.45;50.43;98601.78;5075636;28;20043;-78
2022/10/22 00:05:25;;;;;;;19.63;12.02;;;19.40;88.40;;;19.43;50.79;98595.81;5089673;28;20036;-77
2022/10/22 00:07:51;;;;;;;17.55;11.25;;;19.40;89.60;;;19.44;50.83;98589.19;5076767;28;20050;-77
2022/10/22 00:10:17;;;;;;;19.23;11.43;;;19.40;89.10;;;19.44;51.25;98597.44;5081436;27;20036;-77
2022/10/22 00:12:44;;;;;;;17.65;10.75;;;19.40;89.30;;;19.42;50.46;98585.97;5065452;28;20044;-77
2022/10/22 00:15:10;;;;;;;22.80;12.32;;;19.30;88.60;;;19.43;50.60;98574.59;5070921;27;20940;-77
2022/10/22 00:17:36;;;;;;;19.98;13.57;;;19.40;88.60;;;19.40;50.44;98575.28;5067623;27;20048;-77
2022/10/22 00:20:03;;;;;;;18.15;11.75;;;19.40;88.60;;;19.43;50.24;98573.81;5072863;28;20119;-77
2022/10/22 00:22:29;;;;;;;17.58;11.25;;;19.40;88.40;;;19.43;50.89;98568.31;5087961;27;20451;-77
2022/10/22 00:24:55;;;;;;;16.02;11.85;;;19.40;89.00;;;19.44;50.93;98569.94;5089983;27;20487;-77
2022/10/22 00:27:21;;;;;;;15.65;11.23;;;19.40;89.20;;;19.43;50.76;98573.81;5053294;28;20047;-77
2022/10/22 00:29:48;;;;;;;19.50;13.27;;;19.40;89.00;;;19.39;50.63;98573.69;5072019;27;20489;-77
2022/10/22 00:32:14;;;;;;;24.42;13.38;;;19.40;88.60;;;19.38;50.70;98576.75;5086122;28;20114;-77
2022/10/22 00:34:40;;;;;;;18.35;12.55;;;19.40;88.70;;;19.36;50.82;98584.53;5054263;28;20036;-77
2022/10/22 00:37:06;;;;;;;16.65;11.30;;;19.30;88.60;;;19.40;50.73;98582.72;5086757;28;20055;-77
2022/10/22 00:39:32;;;;;;;17.25;11.93;;;19.30;88.80;;;19.43;50.91;98577.34;5059392;28;20096;-78
2022/10/22 00:41:59;;;;;;;17.45;11.23;;;19.40;89.20;;;19.38;51.03;98565.75;5044452;28;20452;-78
2022/10/22 00:45:09;;;;;;;18.50;11.70;;;19.30;89.30;;;19.38;50.74;98576.75;5115776;27;20077;-78
2022/10/22 00:47:44;;;;;;;16.25;10.13;;;19.30;88.80;;;19.36;50.65;98576.28;5079619;28;20052;-78
2022/10/22 00:50:30;;;;;;;18.60;11.40;;;19.30;88.80;;;19.35;50.73;98577.44;5049410;28;20392;-78
2022/10/22 00:52:56;;;;;;;17.50;12.57;;;19.30;88.70;;;19.36;50.52;98579.03;5060467;28;20267;-78
2022/10/22 00:55:24;;;;;;;18.33;11.80;;;19.30;89.50;;;19.39;50.85;98581.13;5072722;28;20050;-78
2022/10/22 00:57:50;;;;;;;21.02;13.02;;;19.30;89.40;;;19.39;51.10;98581.13;5065657;28;20041;-78
2022/10/22 01:00:16;;;;;;;20.17;11.93;;;19.30;89.40;;;19.36;50.83;98577.13;5076811;28;20450;-78
2022/10/22 01:02:42;;;;;;;15.32;10.75;;;19.30;89.00;;;19.36;50.78;98576.28;5068027;28;20049;-79
2022/10/22 01:05:09;;;;;;;20.52;12.18;;;19.30;88.80;;;19.38;50.80;98574.81;5041788;28;20557;-79
2022/10/22 01:07:50;;;;;;;18.17;11.93;;;19.30;88.80;;;19.39;50.54;98572.88;5053656;28;20115;-78
2022/10/22 01:10:35;;;;;;;17.98;11.38;;;19.30;88.70;;;19.36;51.15;98566.13;5039868;28;20127;-79
2022/10/22 01:13:25;;;;;;;17.10;11.95;;;19.30;89.10;;;19.40;50.87;98563.47;5071241;28;20067;-79
2022/10/22 01:16:12;;;;;;;15.95;10.65;;;19.30;89.20;;;19.39;50.75;98570.13;5059453;28;20056;-79
2022/10/22 01:19:03;;;;;;;15.65;10.82;;;19.40;89.00;;;19.37;50.89;98569.66;5044191;28;20048;-78
2022/10/22 01:21:43;;;;;;;20.85;12.45;;;19.30;88.70;;;19.34;50.64;98564.84;5063630;28;20104;-78
2022/10/22 01:24:59;;;;;;;15.05;10.90;;;19.30;88.70;;;19.37;50.63;98567.72;5056053;28;20050;-78
2022/10/22 01:27:44;;;;;;;22.58;13.10;;;19.30;88.60;;;19.37;50.84;98555.91;4970071;28;20102;-78
2022/10/22 01:30:11;;;;;;;19.40;12.23;;;19.30;89.20;;;19.31;51.13;98552.56;5040126;28;20060;-78
2022/10/22 01:32:45;;;;;;;18.92;12.77;;;19.30;89.30;;;19.34;50.76;98559.34;5056963;28;20074;-78
2022/10/22 01:35:14;;;;;;;17.00;12.25;;;19.30;88.80;;;19.36;50.77;98568.88;5043265;28;20060;-78
2022/10/22 01:37:54;;;;;;;18.08;12.32;;;19.30;88.80;;;19.35;50.63;98572.75;5054085;28;20050;-78
2022/10/22 01:40:20;;;;;;;18.33;12.50;;;19.30;88.80;;;19.34;50.68;98576.66;5054283;28;20093;-78
2022/10/22 01:43:19;;;;;;;17.63;12.02;;;19.30;88.80;;;19.31;50.99;98566.31;5050937;28;20064;-78
2022/10/22 01:45:51;;;;;;;16.50;11.45;;;19.20;89.10;;;19.31;51.39;98558.06;5039657;28;20082;-78
2022/10/22 01:48:41;;;;;;;14.73;11.27;;;19.30;89.40;;;19.31;50.93;98558.06;5058204;28;20058;-78
2022/10/22 01:51:29;;;;;;;18.20;11.68;;;19.30;89.00;;;19.32;50.74;98567.13;5109355;28;20044;-78
2022/10/22 01:54:15;;;;;;;15.30;11.93;;;19.30;88.80;;;19.32;50.64;98562.41;5097786;28;20470;-78
2022/10/22 01:57:13;;;;;;;20.77;12.15;;;19.20;88.70;;;19.28;50.75;98555.97;5088371;27;20028;-78
2022/10/22 01:59:58;;;;;;;19.55;11.05;;;19.20;88.60;;;19.28;51.23;98561.47;5095475;28;20044;-78
2022/10/22 02:02:42;;;;;;;19.02;12.02;;;19.30;89.40;;;19.26;51.28;98550.81;5102183;28;20032;-78
2022/10/22 02:05:26;;;;;;;16.33;11.20;;;19.30;89.40;;;19.25;51.19;98548.41;5075173;28;20044;-78
2022/10/22 02:08:10;;;;;;;18.20;11.60;;;19.20;88.90;;;19.27;50.96;98546.94;5095577;28;20040;-78
2022/10/22 02:10:37;;;;;;;18.45;11.55;;;19.20;88.80;;;19.29;50.67;98557.59;5067029;28;20038;-78
2022/10/22 02:13:03;;;;;;;18.92;12.38;;;19.20;88.80;;;19.24;51.04;98552.31;5092688;27;20075;-78
2022/10/22 02:15:29;;;;;;;16.60;11.65;;;19.20;89.00;;;19.21;51.24;98544.72;5060004;27;20040;-78
2022/10/22 02:17:56;;;;;;;17.65;13.02;;;19.20;89.30;;;19.24;51.39;98535.81;5075578;27;20058;-79
2022/10/22 02:20:31;;;;;;;18.73;10.85;;;19.10;89.20;;;19.24;51.19;98542.09;5061128;27;20480;-78
2022/10/22 02:22:58;;;;;;;20.23;12.77;;;19.20;89.30;;;19.26;51.03;98539.03;5085069;27;20039;-78
2022/10/22 02:25:28;;;;;;;20.52;12.82;;;19.20;88.90;;;19.25;50.92;98546.44;5074914;28;20052;-78
2022/10/22 02:28:31;;;;;;;20.45;11.95;;;19.20;88.90;;;19.22;50.96;98549.88;5074419;27;20449;-78
2022/10/22 02:31:05;;;;;;;17.30;12.02;;;19.20;89.00;;;19.27;51.03;98557.94;5063965;28;20036;-78
2022/10/22 02:33:35;;;;;;;18.25;11.63;;;19.20;89.40;;;19.26;51.24;98564.56;5068090;27;20063;-78
2022/10/22 02:36:02;;;;;;;17.38;12.30;;;19.20;89.30;;;19.22;51.27;98560.88;5073372;27;20069;-78
2022/10/22 02:38:28;;;;;;;22.10;13.65;;;19.20;89.40;;;19.22;50.94;98563.63;5075202;27;20165;-77
2022/10/22 02:40:54;;;;;;;16.10;11.95;;;19.20;89.10;;;19.18;51.13;98561.88;5073314;27;20046;-78
2022/10/22 02:43:22;;;;;;;15.88;11.60;;;19.20;89.00;;;19.20;50.98;98554.91;5059256;27;20119;-78
2022/10/22 02:45:48;;;;;;;18.58;12.55;;;19.10;89.00;;;19.20;51.01;98565.91;5069677;27;20043;-78
2022/10/22 02:48:14;;;;;;;18.45;12.18;;;19.10;88.90;;;19.20;51.15;98554.09;5078473;28;20047;-78
2022/10/22 02:50:41;;;;;;;18.42;11.70;;;19.10;89.30;;;19.21;51.52;98553.78;5077936;27;20044;-78
2022/10/22 02:53:07;;;;;;;17.63;13.13;;;19.20;89.30;;;19.20;51.36;98552.16;5091953;28;20044;-78
2022/10/22 02:55:33;;;;;;;18.50;12.10;;;19.10;89.30;;;19.20;51.07;98537.63;5090721;27;20075;-79
2022/10/22 02:57:59;;;;;;;21.27;12.48;;;19.10;89.10;;;19.18;51.06;98545.38;5108829;27;20127;-79
2022/10/22 03:00:25;;;;;;;19.45;12.50;;;19.10;89.10;;;19.18;51.17;98546.19;5075646;28;20450;-79
2022/10/22 03:02:51;;;;;;;22.42;13.15;;;19.10;89.00;;;19.23;50.99;98551.50;5092999;28;20037;-78
2022/10/22 03:05:17;;;;;;;15.82;11.38;;;19.10;89.20;;;19.20;51.36;98554.91;5094185;28;20130;-78
2022/10/22 03:07:43;;;;;;;19.25;12.63;;;19.10;89.20;;;19.19;51.65;98553.31;5089936;28;20544;-78
2022/10/22 03:10:09;;;;;;;17.23;11.98;;;19.10;89.20;;;19.21;50.94;98552.97;5073613;28;20081;-79
2022/10/22 03:12:35;;;;;;;18.67;12.88;;;19.10;89.00;;;19.23;50.96;98559.75;5091459;28;20077;-79
2022/10/22 03:15:02;;;;;;;18.25;11.50;;;19.20;89.00;;;19.21;50.91;98559.28;5057862;28;20119;-78
2022/10/22 03:17:28;;;;;;;18.75;12.80;;;19.10;88.80;;;19.22;50.60;98558.13;5054365;28;20036;-78
2022/10/22 03:19:54;;;;;;;17.98;11.63;;;19.10;88.80;;;19.19;51.26;98553.31;5100865;28;20039;-78
2022/10/22 03:22:24;;;;;;;17.35;12.02;;;19.10;89.20;;;19.23;51.46;98554.25;5077978;27;20035;-78
2022/10/22 03:24:53;;;;;;;16.70;11.88;;;19.10;89.30;;;19.22;50.99;98558.13;5074840;28;20114;-79
2022/10/22 03:27:19;;;;;;;18.00;12.93;;;19.10;89.20;;;19.22;51.17;98555.38;5061388;28;20028;-77
2022/10/22 03:29:46;;;;;;;20.48;13.15;;;19.20;89.10;;;19.20;51.01;98565.09;5089682;28;20031;-77
2022/10/22 03:32:12;;;;;;;20.00;12.90;;;19.10;88.80;;;19.21;50.97;98573.03;5072000;28;20042;-77
2022/10/22 03:34:39;;;;;;;19.40;12.07;;;19.10;88.80;;;19.23;51.04;98569.94;5071205;28;20482;-77
2022/10/22 03:37:05;;;;;;;15.98;10.88;;;19.10;89.10;;;19.21;51.21;98551.03;5080852;28;20071;-77
2022/10/22 03:39:32;;;;;;;15.98;11.48;;;19.10;89.20;;;19.22;51.40;98555.38;5076044;28;20044;-77
2022/10/22 03:41:58;;;;;;;18.10;12.45;;;19.10;89.20;;;19.20;51.02;98565.91;5069704;28;20066;-78
2022/10/22 03:44:25;;;;;;;16.73;11.43;;;19.10;89.10;;;19.17;51.26;98563.03;5071165;28;20040;-78
2022/10/22 03:46:51;;;;;;;16.50;11.02;;;19.10;89.00;;;19.18;51.00;98557.19;5093561;28;20047;-78
2022/10/22 03:49:17;;;;;;;15.52;11.57;;;19.10;88.90;;;19.17;50.91;98572.09;5061387;27;20354;-78
2022/10/22 03:51:43;;;;;;;17.95;12.35;;;19.10;88.90;;;19.20;51.42;98560.41;5065264;28;20080;-78
2022/10/22 03:54:09;;;;;;;17.92;12.48;;;19.10;89.20;;;19.17;50.59;98555.59;5080602;28;20326;-78
2022/10/22 03:56:35;;;;;;;18.40;12.35;;;19.10;88.40;;;19.18;50.65;98534.38;5071379;28;20123;-78
2022/10/22 03:59:02;;;;;;;19.08;13.13;;;19.10;88.30;;;19.15;50.30;98546.06;5075309;27;20048;-78
2022/10/22 04:01:28;;;;;;;16.77;11.90;;;19.10;88.10;;;19.14;50.40;98556.25;5064783;27;20047;-77
2022/10/22 04:03:55;;;;;;;18.00;12.70;;;19.10;88.10;;;19.13;50.82;98549.13;5059686;27;20087;-77
2022/10/22 04:06:21;;;;;;;18.00;11.95;;;19.00;88.80;;;19.19;51.01;98541.50;5088676;28;20087;-77
2022/10/22 04:08:47;;;;;;;18.75;11.55;;;19.00;89.10;;;19.18;50.86;98540.69;5089454;28;20042;-77
2022/10/22 04:11:13;;;;;;;20.60;11.90;;;19.00;89.00;;;19.17;50.48;98539.09;5092871;27;20112;-77
2022/10/22 04:13:40;;;;;;;21.20;11.75;;;19.00;88.30;;;19.14;50.47;98539.78;5070386;27;20127;-77
2022/10/22 04:16:12;;;;;;;16.95;11.50;;;19.00;88.10;;;19.14;50.09;98537.03;5079002;28;20039;-77
2022/10/22 04:18:39;;;;;;;15.32;11.30;;;19.00;87.90;;;19.12;50.29;98542.03;5105202;27;20050;-77
2022/10/22 04:21:06;;;;;;;15.95;10.93;;;19.00;88.10;;;19.09;50.99;98539.97;5065485;27;20122;-77
2022/10/22 04:23:33;;;;;;;17.35;11.57;;;19.00;89.00;;;19.15;50.79;98541.38;5067440;27;20065;-77
2022/10/22 04:26:06;;;;;;;16.17;11.18;;;19.00;89.10;;;19.14;50.36;98545.28;5090083;28;20056;-77
2022/10/22 04:28:33;;;;;;;16.70;11.75;;;19.00;88.50;;;19.13;50.18;98540.88;5051837;28;20399;-77
2022/10/22 04:30:59;;;;;;;17.30;11.40;;;19.00;88.10;;;19.12;49.98;98538.50;5081893;27;20058;-77
2022/10/22 04:33:25;;;;;;;17.33;11.60;;;19.00;88.00;;;19.13;50.08;98542.84;5068354;27;20039;-77
2022/10/22 04:35:52;;;;;;;16.40;10.95;;;19.00;87.70;;;19.08;50.42;98541.09;5070839;27;20046;-77
2022/10/22 04:38:18;;;;;;;18.15;13.25;;;19.00;88.40;;;19.15;50.54;98535.88;5084558;27;20035;-77
2022/10/22 04:40:44;;;;;;;15.88;11.10;;;19.00;88.80;;;19.12;50.66;98527.50;5082722;27;20035;-77
2022/10/22 04:43:10;;;;;;;16.63;11.48;;;19.00;88.80;;;19.09;50.21;98529.78;5088258;27;20380;-77
2022/10/22 04:45:36;;;;;;;18.17;11.63;;;19.00;88.10;;;19.11;50.06;98545.94;5054912;28;20048;-77
2022/10/22 04:48:02;;;;;;;18.20;13.02;;;18.90;87.90;;;19.11;49.89;98548.69;5083925;28;20469;-77
2022/10/22 04:50:29;;;;;;;16.15;11.93;;;18.90;87.60;;;19.12;49.79;98552.25;5065462;27;20036;-77
2022/10/22 04:52:55;;;;;;;15.30;10.55;;;19.00;87.60;;;19.13;50.55;98548.34;5081286;28;20065;-76
2022/10/22 04:55:21;;;;;;;15.30;11.45;;;19.00;88.50;;;19.08;50.53;98552.91;5069532;28;20042;-76
2022/10/22 04:57:47;;;;;;;16.98;11.80;;;18.90;88.60;;;19.12;50.21;98553.03;5070657;28;20046;-77
2022/10/22 05:00:15;;;;;;;17.83;10.93;;;19.00;88.30;;;19.06;50.19;98546.16;5088343;28;20039;-77
2022/10/22 05:02:43;;;;;;;16.27;11.38;;;18.90;87.70;;;19.11;49.73;98537.69;5069236;28;20388;-77
2022/10/22 05:05:10;;;;;;;20.20;11.30;;;18.90;87.50;;;19.08;49.59;98552.09;5086549;28;20121;-77
2022/10/22 05:07:36;;;;;;;19.98;13.27;;;18.90;87.30;;;19.07;49.86;98540.28;5069043;28;20070;-76
2022/10/22 05:10:03;;;;;;;17.13;10.70;;;18.90;87.60;;;19.09;50.32;98542.72;5102093;28;20147;-77
2022/10/22 05:12:29;;;;;;;17.75;11.45;;;18.90;88.20;;;19.08;50.45;98541.09;5102226;28;20127;-77
2022/10/22 05:14:55;;;;;;;15.18;10.40;;;18.90;88.40;;;19.03;50.21;98528.38;5087358;28;20081;-77
2022/10/22 05:17:21;;;;;;;16.05;11.05;;;18.90;87.90;;;19.08;49.76;98525.44;5054845;28;20508;-77
2022/10/22 05:19:47;;;;;;;16.90;11.77;;;18.90;87.30;;;19.05;49.42;98517.03;5052738;28;20036;-77
2022/10/22 05:22:14;;;;;;;13.40;10.73;;;19.00;87.20;;;19.05;49.54;98515.09;5087635;28;20040;-77
2022/10/22 05:24:40;;;;;;;12.32;10.38;;;18.90;87.10;;;19.04;49.97;98502.50;5053890;28;20044;-77
2022/10/22 05:27:06;;;;;;;18.38;11.55;;;18.90;87.80;;;19.06;50.22;98504.91;5052698;28;20040;-77
2022/10/22 05:29:32;;;;;;;15.07;10.98;;;18.90;88.30;;;19.09;50.18;98496.00;5093867;28;20085;-77
2022/10/22 05:32:00;;;;;;;15.90;10.65;;;18.90;88.30;;;19.09;49.76;98507.78;5075201;28;20036;-77
2022/10/22 05:34:26;;;;;;;16.90;10.82;;;19.00;87.60;;;19.07;49.54;98526.56;5086146;28;20055;-77
2022/10/22 05:36:53;;;;;;;17.80;12.40;;;18.90;87.20;;;19.11;49.18;98534.13;5079759;28;20036;-77
2022/10/22 05:39:19;;;;;;;16.40;11.35;;;18.90;87.10;;;19.10;49.41;98544.31;5056832;28;20093;-77
2022/10/22 05:41:46;;;;;;;19.55;10.48;;;18.90;87.10;;;19.11;49.82;98539.63;5107292;27;20043;-77
2022/10/22 05:44:12;;;;;;;14.05;10.82;;;18.90;88.00;;;19.08;49.98;98557.59;5071999;28;20801;-77
2022/10/22 05:46:39;;;;;;;17.58;9.93;;;18.90;88.20;;;19.07;49.98;98556.00;5071796;28;20109;-77
2022/10/22 05:49:05;;;;;;;14.23;9.93;;;18.90;88.00;;;19.07;49.52;98562.28;5072926;28;20040;-77
2022/10/22 05:51:34;;;;;;;17.13;11.35;;;18.90;87.30;;;19.08;49.39;98557.59;5068415;28;20032;-79
2022/10/22 05:54:03;;;;;;;13.30;9.52;;;18.90;87.20;;;19.07;49.45;98554.03;5072022;28;20036;-80
2022/10/22 05:56:30;;;;;;;14.85;10.52;;;18.90;87.20;;;19.07;49.32;98553.25;5073350;28;20064;-81
2022/10/22 05:58:57;;;;;;;15.18;10.68;;;19.00;87.10;;;19.08;49.29;98560.34;5063943;28;20043;-81
2022/10/22 06:01:26;;;;;;;15.82;10.48;;;18.90;86.90;;;19.06;49.40;98557.16;5073223;28;20495;-78
2022/10/22 06:03:57;;;;;;;14.27;10.30;;;19.00;87.20;;;19.05;49.94;98547.28;5084118;28;20038;-78
2022/10/22 06:06:50;;;;;;;14.70;10.60;;;19.00;87.60;;;19.08;50.01;98549.34;5057567;28;20047;-79
2022/10/22 06:09:34;;;;;;;15.57;10.02;;;18.90;88.20;;;19.09;49.67;98557.28;5084439;28;20105;-78
2022/10/22 06:12:00;;;;;;;16.25;9.82;;;18.90;87.80;;;19.14;49.69;98566.47;5070006;28;20168;-79
2022/10/22 06:14:26;;;;;;;17.88;10.68;;;19.00;87.60;;;19.08;49.40;98572.16;5055265;28;20036;-78
2022/10/22 06:16:53;;;;;;;17.67;10.57;;;19.00;87.40;;;19.15;49.63;98568.06;5062907;28;20092;-78
2022/10/22 06:19:21;;;;;;;18.80;10.88;;;19.00;87.30;;;19.18;49.61;98567.38;5070585;28;20048;-78
2022/10/22 06:21:47;;;;;;;18.73;10.18;;;19.00;87.70;;;19.21;49.77;98566.72;5068556;28;20044;-79
2022/10/22 06:24:13;;;;;;;15.10;10.18;;;19.00;88.00;;;19.16;50.16;98554.00;5070879;28;20075;-78
2022/10/22 06:26:40;;;;;;;16.48;9.90;;;19.00;88.30;;;19.11;49.73;98548.69;5059165;28;20115;-79
2022/10/22 06:29:06;;;;;;;14.23;10.90;;;19.00;87.80;;;19.13;49.75;98554.63;5057794;28;20040;-79
2022/10/22 06:31:35;;;;;;;15.40;11.00;;;18.90;87.60;;;19.14;49.73;98569.22;5055426;27;20474;-79
2022/10/22 06:34:11;;;;;;;11.88;10.05;;;19.00;87.50;;;19.18;49.54;98581.94;5068226;28;20039;-79
2022/10/22 06:36:37;;;;;;;14.63;10.05;;;19.00;87.40;;;19.22;49.97;98584.81;5072932;28;20122;-79
2022/10/22 06:39:04;;;;;;;10.77;8.77;;;19.00;88.10;;;19.20;50.04;98598.91;5074419;28;20085;-79
2022/10/22 06:41:30;;;;;;;14.68;9.23;;;19.00;88.20;;;19.21;49.79;98617.03;5071825;28;20142;-78
2022/10/22 06:43:56;;;;;;;13.70;10.48;;;19.00;88.10;;;19.22;49.50;98613.13;5068451;28;20294;-78
2022/10/22 06:46:23;;;;;;;13.70;9.68;;;19.00;87.60;;;19.25;49.53;98619.91;5068712;28;20083;-78
2022/10/22 06:49:04;;;;;;;13.05;9.82;;;19.00;87.60;;;19.24;49.64;98619.09;5076366;28;20119;-79
2022/10/22 06:51:30;;;;;;;13.68;10.07;;;19.00;87.40;;;19.26;49.68;98605.03;5089170;28;20040;-78
2022/10/22 06:53:57;;;;;;;12.23;9.32;;;19.10;87.70;;;19.24;49.90;98616.34;5057563;28;20048;-77
2022/10/22 06:56:25;;;;;;;12.57;8.88;;;19.10;88.00;;;19.28;50.21;98613.72;5069090;28;20127;-82
2022/10/22 06:58:53;;;;;;;13.15;9.50;;;19.10;88.20;;;19.19;49.72;98624.81;5059151;28;20105;-81
2022/10/22 07:01:24;;;;;;;11.88;9.23;;;19.00;87.70;;;19.25;49.66;98612.44;5085047;28;20028;-77
2022/10/22 07:03:50;;;;;;;15.63;10.20;;;19.10;87.80;;;19.27;49.70;98615.66;5057234;27;20123;-77
2022/10/22 07:06:17;;;;;;;14.30;8.88;;;19.10;87.50;;;19.28;49.38;98606.31;5071041;27;20099;-77
2022/10/22 07:08:43;;;;;;;14.27;9.98;;;19.10;87.40;;;19.33;49.76;98605.28;5057807;27;20088;-77
2022/10/22 07:11:20;;;;;;;11.07;8.57;;;19.10;87.70;;;19.36;49.45;98620.28;5052424;28;20088;-77
2022/10/22 07:13:46;;;;;;;13.98;9.75;;;19.20;88.00;;;19.37;49.83;98613.66;5072657;27;20040;-77
2022/10/22 07:16:12;;;;;;;12.27;9.10;;;19.20;87.90;;;19.35;49.53;98599.44;5074962;27;20043;-77
2022/10/22 07:18:41;;;;;;;12.57;9.20;;;19.10;87.70;;;19.36;49.41;98610.13;5070945;27;20051;-77
2022/10/22 07:21:08;;;;;;;12.85;8.88;;;19.20;87.60;;;19.38;49.23;98604.25;5069672;28;20679;-77
2022/10/22 07:23:35;;;;;;;12.85;10.18;;;19.10;87.30;;;19.43;49.38;98604.06;5070553;27;20048;-77
2022/10/22 07:26:01;;;;;;;13.68;9.10;;;19.20;87.50;;;19.41;49.80;98606.34;5050384;28;20040;-77
2022/10/22 07:28:28;;;;;;;13.63;9.63;;;19.20;87.90;;;19.44;49.67;98608.44;5069406;28;20505;-77
2022/10/22 07:30:54;;;;;;;11.80;8.40;;;19.20;88.00;;;19.43;49.31;98612.31;5067678;27;20048;-77
2022/10/22 07:33:20;;;;;;;11.80;8.85;;;19.20;87.40;;;19.44;49.28;98614.72;5086962;27;20047;-77
2022/10/22 07:35:46;;;;;;;9.15;7.82;;;19.30;87.60;;;19.43;49.28;98615.06;5051484;28;20040;-77
2022/10/22 07:38:12;;;;;;;15.10;9.32;;;19.30;87.40;;;19.43;49.43;98617.81;5068588;28;20050;-78
2022/10/22 07:40:41;;;;;;;10.63;8.18;;;19.30;87.30;;;19.45;49.69;98616.34;5055936;28;20062;-78
2022/10/22 07:43:07;;;;;;;14.20;9.73;;;19.30;87.80;;;19.42;49.64;98614.25;5086574;28;20478;-78
2022/10/22 07:45:33;;;;;;;13.27;8.93;;;19.30;87.80;;;19.45;49.69;98627.34;5081240;28;20034;-77
2022/10/22 07:48:00;;;;;;;11.90;8.85;;;19.30;87.90;;;19.45;49.46;98607.28;5080735;28;20105;-77
2022/10/22 07:50:26;;;;;;;15.10;8.73;;;19.30;87.50;;;19.44;49.50;98589.19;5097528;27;20039;-77
2022/10/22 07:52:52;;;;;;;13.93;8.82;;;19.30;87.40;;;19.44;49.41;98598.22;5080144;28;20493;-77
2022/10/22 07:55:20;;;;;;;19.33;9.30;;;19.30;87.20;;;19.46;49.34;98600.63;5099939;27;20558;-77
2022/10/22 07:57:46;;;;;;;11.88;9.05;;;19.40;87.20;;;19.50;49.68;98593.31;5101801;27;20483;-77
2022/10/22 08:00:13;;;;;;;14.02;8.85;;;19.40;87.60;;;19.58;49.65;98575.91;5097443;27;20076;-79
2022/10/22 08:02:38;;;;;;;12.32;8.73;;;19.40;87.90;;;19.59;49.39;98566.53;5061428;28;20047;-77
2022/10/22 08:05:05;;;;;;;12.85;8.48;;;19.40;87.60;;;19.60;49.27;98572.84;5052562;28;20131;-79
2022/10/22 08:07:31;;;;;;;14.02;9.00;;;19.40;87.30;;;19.65;48.96;98581.69;5054494;28;20066;-77
2022/10/22 08:09:58;;;;;;;11.55;8.13;;;19.40;87.20;;;19.66;49.08;98571.47;5056155;28;20043;-76
2022/10/22 08:12:23;;;;;;;12.73;8.77;;;19.40;87.00;;;19.68;49.04;98569.22;5079578;28;20046;-76
2022/10/22 08:14:50;;;;;;;10.10;8.10;;;19.50;87.30;;;19.68;49.15;98575.53;5043631;28;20085;-76
2022/10/22 08:17:16;;;;;;;9.05;7.47;;;19.50;87.50;;;19.67;49.32;98584.13;5080552;28;20040;-77
2022/10/22 08:19:42;;;;;;;11.85;8.52;;;19.50;87.60;;;19.67;49.26;98573.94;5079292;28;20045;-77
2022/10/22 08:22:08;;;;;;;13.93;8.18;;;19.50;87.20;;;19.67;49.63;98584.13;5061273;27;20043;-76
2022/10/22 08:24:34;;;;;;;13.90;8.40;;;19.60;87.10;;;19.65;49.10;98598.19;5087434;28;20442;-77
2022/10/22 08:27:00;;;;;;;13.45;7.70;;;19.60;86.90;;;19.71;49.02;98616.13;5062407;27;20035;-77
2022/10/22 08:29:26;;;;;;;10.70;8.20;;;19.60;86.90;;;19.76;49.10;98603.31;5079948;28;20070;-76
2022/10/22 08:31:52;;;;;;;10.30;8.13;;;19.60;87.20;;;19.77;49.16;98602.97;5079841;28;20035;-76
2022/10/22 08:34:19;;;;;;;11.90;8.77;;;19.60;87.30;;;19.73;49.14;98613.84;5060830;28;20044;-77
2022/10/22 08:36:45;;;;;;;11.55;8.27;;;19.60;87.40;;;19.71;49.18;98621.63;5082768;27;20276;-77
2022/10/22 08:39:11;;;;;;;11.20;8.70;;;19.60;86.90;;;19.71;49.14;98626.31;5078762;28;20478;-76
2022/10/22 08:42:02;;;;;;;10.85;8.30;;;19.60;86.90;;;19.70;49.09;98628.28;5079931;27;20051;-77
2022/10/22 08:44:52;;;;;;;12.13;8.45;;;19.60;86.80;;;19.71;49.00;98618.88;5082625;27;20044;-76
2022/10/22 08:47:40;;;;;;;11.48;8.55;;;19.60;86.90;;;19.75;49.02;98624.53;5096569;27;20047;-76
2022/10/22 08:50:10;;;;;;;12.05;8.00;;;19.60;87.20;;;19.73;49.28;98638.59;5100225;28;20048;-76
2022/10/22 08:52:36;;;;;;;16.42;8.15;;;19.70;87.20;;;19.76;48.76;98641.84;5036621;28;20118;-76
2022/10/22 08:55:03;;;;;;;11.63;8.68;;;19.70;86.90;;;19.78;48.96;98639.53;5062544;28;20050;-76
2022/10/22 08:57:58;;;;;;;10.75;7.80;;;19.70;86.70;;;19.75;48.87;98637.47;5079702;28;20069;-76
2022/10/22 09:00:35;;;;;;;9.18;7.32;;;19.70;86.50;;;19.73;48.84;98627.59;5053588;28;20054;-76
2022/10/22 09:03:14;;;;;;;8.90;7.40;;;19.70;86.50;;;19.77;49.21;98629.66;5065886;28;20698;-76
2022/10/22 09:05:45;;;;;;;8.98;7.88;;;19.70;87.00;;;19.79;49.35;98630.13;5102600;28;20101;-76
2022/10/22 09:08:12;;;;;;;;;;;19.70;87.20;;;19.80;49.01;98632.56;5097009;28;20067;-76
2022/10/22 09:10:41;;;;;;;10.90;7.80;;;19.80;86.80;;;19.80;48.80;98624.31;5062191;28;20392;-76
2022/10/22 09:13:10;;;;;;;13.27;8.75;;;19.80;86.70;;;19.84;48.75;98613.41;5053526;28;20515;-76
2022/10/22 09:15:38;;;;;;;10.90;7.55;;;19.80;86.60;;;19.84;48.63;98594.94;5059987;28;20040;-76
2022/10/22 09:18:29;;;;;;;11.95;8.07;;;19.80;86.50;;;19.89;48.92;98583.72;5069451;28;20442;-76
2022/10/22 09:20:59;;;;;;;10.95;7.25;;;19.80;86.60;;;19.95;48.75;98587.88;5094538;28;20050;-76
2022/10/22 09:23:44;;;;;;;12.25;8.07;;;19.80;86.60;;;19.93;48.70;98581.91;5062510;28;20039;-76
2022/10/22 09:26:15;;;;;;;10.63;8.20;;;19.80;86.40;;;19.94;48.28;98593.72;5065572;28;20044;-76
2022/10/22 09:28:41;;;;;;;10.32;7.75;;;19.90;87.00;;;19.92;48.70;98604.25;5065071;28;20113;-76
2022/10/22 09:31:11;;;;;;;9.65;7.75;;;19.90;86.70;;;19.89;48.58;98607.69;5051756;28;20335;-76
2022/10/22 09:33:39;;;;;;;9.55;7.55;;;19.90;86.20;;;19.93;48.71;98625.94;5061966;28;20068;-76
2022/10/22 09:36:06;;;;;;;12.38;8.48;;;19.90;86.40;;;19.94;48.71;98627.53;5052138;28;20542;-76
2022/10/22 09:38:53;;;;;;;11.55;7.03;;;19.90;86.40;;;19.94;48.82;98640.50;5058219;28;20055;-76
2022/10/22 09:41:22;;;;;;;13.18;7.53;;;20.00;86.40;;;19.91;48.92;98641.19;5060320;28;20119;-76
2022/10/22 09:43:48;;;;;;;11.27;7.28;;;19.90;86.20;;;19.90;48.60;98643.16;5048570;28;20094;-76
2022/10/22 09:46:18;;;;;;;13.23;7.60;;;19.90;86.20;;;19.93;48.65;98638.91;5098028;28;20477;-76
2022/10/22 09:48:50;;;;;;;9.90;7.25;;;20.00;86.30;;;19.90;48.58;98634.88;5046623;28;20036;-76
2022/10/22 09:51:50;;;;;;;9.38;7.22;;;20.00;86.30;;;19.93;48.75;98628.69;5044639;28;20105;-76
2022/10/22 09:54:32;;;;;;;12.68;7.40;;;19.90;86.30;;;19.93;48.89;98628.69;5092626;28;20079;-76
2022/10/22 09:57:13;;;;;;;9.82;7.78;;;19.90;86.40;;;19.89;48.68;98633.25;5081751;28;20061;-76
2022/10/22 09:59:40;;;;;;;12.98;7.60;;;20.00;86.30;;;19.87;48.87;98629.25;5067131;28;20047;-76
2022/10/22 10:02:20;;;;;;;7.55;6.43;;;20.00;86.30;;;19.89;48.63;98622.25;5063732;28;20048;-76
2022/10/22 10:04:51;;;;;;;9.23;6.95;;;20.00;86.20;;;19.89;48.75;98618.69;5049951;28;20046;-76
2022/10/22 10:07:29;;;;;;;9.35;6.80;;;20.00;86.20;;;19.93;48.92;98625.16;5044236;28;20047;-76
2022/10/22 10:09:55;;;;;;;9.40;6.65;;;20.00;86.30;;;19.89;48.97;98627.75;5047549;28;20040;-76
2022/10/22 10:12:40;;;;;;;10.57;7.40;;;20.00;86.40;;;19.91;48.83;98630.19;5062951;28;20107;-76
2022/10/22 10:15:32;;;;;;;10.65;6.97;;;20.00;86.30;;;19.93;48.75;98630.66;5098424;27;20040;-75
2022/10/22 10:18:23;;;;;;;11.32;7.78;;;20.00;86.20;;;19.96;48.62;98629.97;5101045;27;20036;-75
2022/10/22 10:21:07;;;;;;;10.25;7.25;;;20.00;86.20;;;19.94;48.58;98626.75;5091021;27;20035;-77
2022/10/22 10:23:54;;;;;;;13.40;7.50;;;20.00;86.10;;;19.94;48.90;98626.75;5066732;27;20189;-77